Time;durP1;ratioP1;P1;durP2;ratioP2;P2;SDS_P1;SDS_P2;PMS_P1;PMS_P2;Temp;Humidity;BMP_temperature;BMP_pressure;BME280_temperature;BME280_humidity;BME280_pressure;Samples;Min_cycle;Max_cycle;Signal;HPM_P1;HPM_P2
2022/04/07 00:00:29;;;;;;;59.23;3.77;;;;;;;;;;5094476;28;20486;-73
2022/04/07 00:02:56;;;;;;;60.37;3.73;;;;;;;;;;5094628;28;20534;-73
2022/04/07 00:05:23;;;;;;;58.80;3.60;;;;;;;;;;5094653;28;20533;-73
2022/04/07 00:07:50;;;;;;;59.93;3.20;;;;;;;;;;5093933;28;20462;-74
2022/04/07 00:10:20;;;;;;;59.60;3.57;;;;;;;;;;5101402;28;20533;-73
2022/04/07 00:12:48;;;;;;;58.93;3.20;;;;;;;;;;5102124;28;20449;-73
2022/04/07 00:15:15;;;;;;;59.33;3.87;;;;;;;;;;5102150;28;20994;-72
2022/04/07 00:17:42;;;;;;;59.20;3.80;;;;;;;;;;5103136;28;20486;-72
2022/04/07 00:20:09;;;;;;;60.17;3.77;;;;;;;;;;5102594;28;20528;-72
2022/04/07 00:22:36;;;;;;;59.80;4.00;;;;;;;;;;5104768;28;20440;-73
2022/04/07 00:25:04;;;;;;;58.97;3.40;;;;;;;;;;5102600;28;20437;-73
2022/04/07 00:27:33;;;;;;;59.77;3.87;;;;;;;;;;5103554;28;20526;-71
2022/04/07 00:30:00;;;;;;;59.40;3.60;;;;;;;;;;5105181;28;20491;-73
2022/04/07 00:32:27;;;;;;;59.47;3.53;;;;;;;;;;5105464;28;20572;-73
2022/04/07 00:34:54;;;;;;;59.90;3.70;;;;;;;;;;5103766;28;20438;-73
2022/04/07 00:37:23;;;;;;;61.80;5.53;;;;;;;;;;5103582;28;20481;-72
2022/04/07 00:39:50;;;;;;;62.97;5.67;;;;;;;;;;5103835;28;20453;-73
2022/04/07 00:42:17;;;;;;;61.00;4.67;;;;;;;;;;5104189;28;20734;-73
2022/04/07 00:44:46;;;;;;;63.00;5.90;;;;;;;;;;5096809;28;20459;-73
2022/04/07 00:47:13;;;;;;;62.23;5.50;;;;;;;;;;5094451;28;20464;-73
2022/04/07 00:49:40;;;;;;;66.97;7.43;;;;;;;;;;5094867;28;20462;-73
2022/04/07 00:52:09;;;;;;;65.97;7.97;;;;;;;;;;5099887;28;20676;-74
2022/04/07 00:54:37;;;;;;;62.13;4.80;;;;;;;;;;5105056;28;20461;-73
2022/04/07 00:57:04;;;;;;;61.50;4.87;;;;;;;;;;5104773;28;20466;-72
2022/04/07 00:59:31;;;;;;;64.27;5.83;;;;;;;;;;5103973;28;20485;-74
2022/04/07 01:02:00;;;;;;;69.93;8.00;;;;;;;;;;5104422;28;20462;-72
2022/04/07 01:04:27;;;;;;;60.80;3.80;;;;;;;;;;5103227;28;20474;-73
2022/04/07 01:06:54;;;;;;;59.07;3.70;;;;;;;;;;5103857;28;20481;-73
2022/04/07 01:09:21;;;;;;;59.00;3.30;;;;;;;;;;5101428;28;20470;-72
2022/04/07 01:11:49;;;;;;;58.80;3.20;;;;;;;;;;5102449;28;20492;-70
2022/04/07 01:14:16;;;;;;;58.80;3.30;;;;;;;;;;5103484;28;21021;-74
2022/04/07 01:16:43;;;;;;;58.90;3.17;;;;;;;;;;5105891;28;20985;-73
2022/04/07 01:19:11;;;;;;;58.73;3.13;;;;;;;;;;5105130;28;21098;-73
2022/04/07 01:21:39;;;;;;;58.57;2.97;;;;;;;;;;5105493;28;20498;-71
2022/04/07 01:24:07;;;;;;;58.37;2.80;;;;;;;;;;5106043;28;20489;-73
2022/04/07 01:26:38;;;;;;;58.50;3.07;;;;;;;;;;5107088;28;20450;-74
2022/04/07 01:29:05;;;;;;;60.10;3.30;;;;;;;;;;5103591;28;20536;-73
2022/04/07 01:31:32;;;;;;;60.13;3.10;;;;;;;;;;5105090;28;20482;-73
2022/04/07 01:34:00;;;;;;;58.37;3.07;;;;;;;;;;5104927;28;20479;-73
2022/04/07 01:36:28;;;;;;;58.33;3.00;;;;;;;;;;5103713;28;20474;-73
2022/04/07 01:38:55;;;;;;;58.30;2.80;;;;;;;;;;5103890;28;20469;-72
2022/04/07 01:41:23;;;;;;;58.23;2.70;;;;;;;;;;5103393;28;20469;-73
2022/04/07 01:43:52;;;;;;;58.07;2.70;;;;;;;;;;5106445;28;20514;-73
2022/04/07 01:46:20;;;;;;;58.27;2.73;;;;;;;;;;5104195;28;20518;-72
2022/04/07 01:48:48;;;;;;;58.07;2.70;;;;;;;;;;5102046;28;20510;-73
2022/04/07 01:51:15;;;;;;;58.20;2.70;;;;;;;;;;5103728;28;20837;-73
2022/04/07 01:53:43;;;;;;;58.47;3.13;;;;;;;;;;5103079;28;20477;-73
2022/04/07 01:56:11;;;;;;;58.67;2.90;;;;;;;;;;5099761;28;20536;-74
2022/04/07 01:58:39;;;;;;;58.43;2.90;;;;;;;;;;5100438;28;20465;-74
2022/04/07 02:01:08;;;;;;;58.60;2.97;;;;;;;;;;5102202;28;20821;-72
2022/04/07 02:03:35;;;;;;;58.13;3.03;;;;;;;;;;5102008;28;20452;-73
2022/04/07 02:06:12;;;;;;;58.57;2.90;;;;;;;;;;5101052;28;20450;-73
2022/04/07 02:08:39;;;;;;;58.40;3.30;;;;;;;;;;5097017;28;20462;-74
2022/04/07 02:11:07;;;;;;;59.20;2.90;;;;;;;;;;5095326;28;20446;-74
2022/04/07 02:13:34;;;;;;;58.13;2.80;;;;;;;;;;5094376;28;20484;-74
2022/04/07 02:16:02;;;;;;;58.57;3.00;;;;;;;;;;5094999;28;20523;-75
2022/04/07 02:18:30;;;;;;;58.37;3.00;;;;;;;;;;5093071;28;20910;-74
2022/04/07 02:20:57;;;;;;;58.57;3.20;;;;;;;;;;5095322;28;20464;-74
2022/04/07 02:23:26;;;;;;;58.70;2.83;;;;;;;;;;5095429;28;20451;-73
2022/04/07 02:25:53;;;;;;;58.50;2.90;;;;;;;;;;5097540;28;20937;-74
2022/04/07 02:28:20;;;;;;;58.67;3.10;;;;;;;;;;5094399;28;20489;-74
2022/04/07 02:30:48;;;;;;;59.37;2.87;;;;;;;;;;5096105;28;20449;-74
2022/04/07 02:33:15;;;;;;;59.67;2.90;;;;;;;;;;5095666;28;20484;-74
2022/04/07 02:35:44;;;;;;;58.57;2.70;;;;;;;;;;5096291;28;20476;-74
2022/04/07 02:38:11;;;;;;;59.27;3.40;;;;;;;;;;5094205;28;20477;-74
2022/04/07 02:40:38;;;;;;;58.77;3.10;;;;;;;;;;5095232;28;20454;-74
2022/04/07 02:43:06;;;;;;;58.40;3.10;;;;;;;;;;5095634;28;20938;-74
2022/04/07 02:45:33;;;;;;;63.60;4.33;;;;;;;;;;5093625;28;20481;-72
2022/04/07 02:48:00;;;;;;;58.73;3.07;;;;;;;;;;5093031;28;21096;-74
2022/04/07 02:50:27;;;;;;;58.47;2.80;;;;;;;;;;5096558;28;20988;-74
2022/04/07 02:52:56;;;;;;;58.60;3.17;;;;;;;;;;5096453;28;20486;-72
2022/04/07 02:55:24;;;;;;;59.40;2.70;;;;;;;;;;5096512;28;20442;-75
2022/04/07 02:57:51;;;;;;;58.80;3.00;;;;;;;;;;5096074;28;20955;-75
2022/04/07 03:00:18;;;;;;;58.70;3.30;;;;;;;;;;5096344;28;20934;-75
2022/04/07 03:02:45;;;;;;;58.47;2.97;;;;;;;;;;5096073;28;20461;-75
2022/04/07 03:05:13;;;;;;;58.43;2.87;;;;;;;;;;5096161;28;20468;-75
2022/04/07 03:07:40;;;;;;;58.57;3.00;;;;;;;;;;5095746;28;20993;-75
2022/04/07 03:10:09;;;;;;;59.60;3.20;;;;;;;;;;5096217;28;20460;-75
2022/04/07 03:12:37;;;;;;;58.77;3.07;;;;;;;;;;5095853;28;20487;-75
2022/04/07 03:15:05;;;;;;;58.60;2.90;;;;;;;;;;5095928;28;20548;-75
2022/04/07 03:17:33;;;;;;;60.30;2.87;;;;;;;;;;5095241;28;20556;-75
2022/04/07 03:20:00;;;;;;;59.10;3.00;;;;;;;;;;5095721;28;20453;-75
2022/04/07 03:22:27;;;;;;;58.77;3.30;;;;;;;;;;5095511;28;20540;-73
2022/04/07 03:24:55;;;;;;;58.83;3.10;;;;;;;;;;5095646;28;21038;-74
2022/04/07 03:27:23;;;;;;;58.83;3.53;;;;;;;;;;5094655;28;20560;-74
2022/04/07 03:29:50;;;;;;;59.00;2.97;;;;;;;;;;5095408;28;20455;-75
2022/04/07 03:32:17;;;;;;;58.80;3.10;;;;;;;;;;5095179;28;20477;-74
2022/04/07 03:34:45;;;;;;;58.50;2.80;;;;;;;;;;5095803;28;20532;-74
2022/04/07 03:37:14;;;;;;;60.30;2.83;;;;;;;;;;5094724;28;20526;-75
2022/04/07 03:39:42;;;;;;;58.50;2.93;;;;;;;;;;5095419;28;20454;-74
2022/04/07 03:42:09;;;;;;;58.70;2.90;;;;;;;;;;5095206;28;20492;-74
2022/04/07 03:44:37;;;;;;;60.23;3.00;;;;;;;;;;5095159;28;20492;-75
2022/04/07 03:47:05;;;;;;;58.60;2.77;;;;;;;;;;5094654;28;20819;-71
2022/04/07 03:49:32;;;;;;;58.33;2.73;;;;;;;;;;5094572;28;20488;-74
2022/04/07 03:51:59;;;;;;;58.00;2.80;;;;;;;;;;5095095;28;20933;-74
2022/04/07 03:54:26;;;;;;;58.40;2.80;;;;;;;;;;5094810;28;20449;-74
2022/04/07 03:56:53;;;;;;;65.37;2.70;;;;;;;;;;5094856;28;20453;-74
2022/04/07 03:59:20;;;;;;;59.60;2.87;;;;;;;;;;5093966;28;20453;-74
2022/04/07 04:01:49;;;;;;;58.40;2.70;;;;;;;;;;5094757;28;20964;-74
2022/04/07 04:04:20;;;;;;;59.50;2.67;;;;;;;;;;5094589;28;20456;-73
2022/04/07 04:06:47;;;;;;;58.57;3.00;;;;;;;;;;5094577;28;20453;-73
2022/04/07 04:09:14;;;;;;;58.27;2.50;;;;;;;;;;5093700;28;20496;-74
2022/04/07 04:11:41;;;;;;;58.77;2.83;;;;;;;;;;5094700;28;20447;-72
2022/04/07 04:14:08;;;;;;;58.70;2.90;;;;;;;;;;5094684;28;20452;-74
2022/04/07 04:16:35;;;;;;;58.10;2.40;;;;;;;;;;5094634;28;20460;-74
2022/04/07 04:19:04;;;;;;;58.70;2.77;;;;;;;;;;5093883;28;20472;-74
2022/04/07 04:21:31;;;;;;;58.90;2.90;;;;;;;;;;5094332;28;20446;-73
2022/04/07 04:23:58;;;;;;;61.33;3.43;;;;;;;;;;5094436;28;20536;-73
2022/04/07 04:26:26;;;;;;;59.20;2.83;;;;;;;;;;5094375;28;21008;-72
2022/04/07 04:28:54;;;;;;;59.90;3.10;;;;;;;;;;5093694;28;20571;-73
2022/04/07 04:31:24;;;;;;;59.63;3.10;;;;;;;;;;5094200;28;20541;-74
2022/04/07 04:33:51;;;;;;;58.70;3.07;;;;;;;;;;5094167;28;20842;-74
2022/04/07 04:36:20;;;;;;;58.80;3.00;;;;;;;;;;5094185;28;20454;-73
2022/04/07 04:38:47;;;;;;;58.60;2.73;;;;;;;;;;5093555;28;20470;-73
2022/04/07 04:41:14;;;;;;;58.33;2.73;;;;;;;;;;5093922;28;20442;-73
2022/04/07 04:43:41;;;;;;;58.73;2.97;;;;;;;;;;5094191;28;20541;-74
2022/04/07 04:46:09;;;;;;;61.27;2.97;;;;;;;;;;5094006;28;20448;-73
2022/04/07 04:48:38;;;;;;;59.57;3.00;;;;;;;;;;5093379;28;20484;-72
2022/04/07 04:51:05;;;;;;;58.27;2.60;;;;;;;;;;5093816;28;20450;-73
2022/04/07 04:53:33;;;;;;;58.50;2.80;;;;;;;;;;5093713;28;20478;-71
2022/04/07 04:56:01;;;;;;;58.60;2.67;;;;;;;;;;5093797;28;20506;-73
2022/04/07 04:58:28;;;;;;;59.40;2.80;;;;;;;;;;5093154;28;20548;-74
2022/04/07 05:00:55;;;;;;;60.50;3.00;;;;;;;;;;5093923;28;20455;-73
2022/04/07 05:03:22;;;;;;;58.17;2.70;;;;;;;;;;5093636;28;20481;-74
2022/04/07 05:05:49;;;;;;;58.27;2.70;;;;;;;;;;5093673;28;20820;-74
2022/04/07 05:08:16;;;;;;;58.60;2.87;;;;;;;;;;5092757;28;20493;-74
2022/04/07 05:10:45;;;;;;;58.60;3.00;;;;;;;;;;5093000;28;20529;-73
2022/04/07 05:13:12;;;;;;;58.47;2.90;;;;;;;;;;5092881;28;20485;-73
2022/04/07 05:15:39;;;;;;;58.27;2.97;;;;;;;;;;5093323;28;20451;-73
2022/04/07 05:18:06;;;;;;;58.80;2.80;;;;;;;;;;5092483;28;20466;-74
2022/04/07 05:20:33;;;;;;;59.30;2.90;;;;;;;;;;5093274;28;20965;-74
2022/04/07 05:23:01;;;;;;;58.70;3.10;;;;;;;;;;5093067;28;20443;-73
2022/04/07 05:25:28;;;;;;;58.53;2.70;;;;;;;;;;5093334;28;20486;-73
2022/04/07 05:27:56;;;;;;;58.07;2.90;;;;;;;;;;5092703;28;20483;-72
2022/04/07 05:30:23;;;;;;;59.20;3.20;;;;;;;;;;5093153;28;20937;-74
2022/04/07 05:32:50;;;;;;;58.70;2.93;;;;;;;;;;5093030;28;20577;-74
2022/04/07 05:35:18;;;;;;;58.40;2.60;;;;;;;;;;5092756;28;20485;-73
2022/04/07 05:37:46;;;;;;;58.40;2.50;;;;;;;;;;5092484;28;20561;-74
2022/04/07 05:40:13;;;;;;;59.87;4.93;;;;;;;;;;5092848;28;20461;-74
2022/04/07 05:42:41;;;;;;;57.93;2.63;;;;;;;;;;5093044;28;20452;-74
2022/04/07 05:45:10;;;;;;;58.10;2.67;;;;;;;;;;5092893;28;20481;-74
2022/04/07 05:47:40;;;;;;;58.17;2.53;;;;;;;;;;5092000;28;20470;-74
2022/04/07 05:50:08;;;;;;;60.40;2.80;;;;;;;;;;5092759;28;20543;-73
2022/04/07 05:52:35;;;;;;;58.43;2.80;;;;;;;;;;5092821;28;20473;-74
2022/04/07 05:55:02;;;;;;;58.17;2.40;;;;;;;;;;5092597;28;20813;-74
2022/04/07 05:57:30;;;;;;;60.53;2.77;;;;;;;;;;5091736;28;20470;-74
2022/04/07 06:00:02;;;;;;;63.50;2.73;;;;;;;;;;5092448;28;20457;-74
2022/04/07 06:02:30;;;;;;;58.50;2.87;;;;;;;;;;5092194;28;20461;-73
2022/04/07 06:04:57;;;;;;;58.00;2.50;;;;;;;;;;5092612;28;20453;-73
2022/04/07 06:07:25;;;;;;;57.93;2.40;;;;;;;;;;5091603;28;20474;-73
2022/04/07 06:09:52;;;;;;;58.10;2.43;;;;;;;;;;5092275;28;20457;-73
2022/04/07 06:12:19;;;;;;;58.60;2.90;;;;;;;;;;5092366;28;20456;-73
2022/04/07 06:14:46;;;;;;;58.40;2.40;;;;;;;;;;5092373;28;20539;-74
2022/04/07 06:17:13;;;;;;;58.70;2.50;;;;;;;;;;5091297;28;20472;-73
2022/04/07 06:19:41;;;;;;;58.20;2.50;;;;;;;;;;5092482;28;20441;-73
2022/04/07 06:22:11;;;;;;;58.17;2.60;;;;;;;;;;5085566;28;20458;-72
2022/04/07 06:24:38;;;;;;;58.30;2.67;;;;;;;;;;5074308;28;20458;-72
2022/04/07 06:27:06;;;;;;;58.97;2.80;;;;;;;;;;5073421;28;20518;-70
2022/04/07 06:29:33;;;;;;;60.10;2.77;;;;;;;;;;5076931;28;20462;-72
2022/04/07 06:32:00;;;;;;;59.43;2.50;;;;;;;;;;5073906;28;20546;-73
2022/04/07 06:34:27;;;;;;;58.07;2.40;;;;;;;;;;5072836;28;20486;-72
2022/04/07 06:36:55;;;;;;;62.10;2.60;;;;;;;;;;5070841;28;20432;-72
2022/04/07 06:39:23;;;;;;;60.00;2.90;;;;;;;;;;5073818;28;20236;-73
2022/04/07 06:41:50;;;;;;;58.07;2.63;;;;;;;;;;5074136;28;20447;-72
2022/04/07 06:44:19;;;;;;;59.53;2.67;;;;;;;;;;5069185;28;20546;-73
2022/04/07 06:46:46;;;;;;;58.07;2.50;;;;;;;;;;5071871;28;20457;-72
2022/04/07 06:49:13;;;;;;;58.30;2.70;;;;;;;;;;5071073;28;20760;-72
2022/04/07 06:51:40;;;;;;;59.40;2.40;;;;;;;;;;5071950;28;20986;-73
2022/04/07 06:54:09;;;;;;;58.00;2.50;;;;;;;;;;5071424;28;20574;-72
2022/04/07 06:56:36;;;;;;;58.43;3.10;;;;;;;;;;5071293;28;20526;-72
2022/04/07 06:59:03;;;;;;;58.17;2.50;;;;;;;;;;5070894;28;20503;-73
2022/04/07 07:01:30;;;;;;;57.87;2.63;;;;;;;;;;5072037;28;20893;-73
2022/04/07 07:03:57;;;;;;;57.90;2.50;;;;;;;;;;5071420;28;20530;-73
2022/04/07 07:06:24;;;;;;;58.07;2.70;;;;;;;;;;5071507;28;20530;-73
2022/04/07 07:08:52;;;;;;;58.07;2.43;;;;;;;;;;5070735;28;20497;-73
2022/04/07 07:11:21;;;;;;;57.87;2.43;;;;;;;;;;5070690;28;20512;-73
2022/04/07 07:13:48;;;;;;;58.30;2.60;;;;;;;;;;5069889;28;20483;-73
2022/04/07 07:16:15;;;;;;;58.20;2.43;;;;;;;;;;5082574;28;20457;-74
2022/04/07 07:18:42;;;;;;;58.37;2.60;;;;;;;;;;5090344;28;20470;-72
2022/04/07 07:21:10;;;;;;;58.53;2.50;;;;;;;;;;5091074;28;20889;-73
2022/04/07 07:23:38;;;;;;;58.60;3.00;;;;;;;;;;5090701;28;20446;-73
2022/04/07 07:26:05;;;;;;;58.37;2.50;;;;;;;;;;5091659;28;20986;-73
2022/04/07 07:28:33;;;;;;;59.00;2.80;;;;;;;;;;5090598;28;20468;-74
2022/04/07 07:31:00;;;;;;;58.77;2.70;;;;;;;;;;5091501;28;20449;-72
2022/04/07 07:33:27;;;;;;;58.27;2.90;;;;;;;;;;5091502;28;20573;-73
2022/04/07 07:35:55;;;;;;;58.30;2.80;;;;;;;;;;5094629;28;20448;-72
2022/04/07 07:38:22;;;;;;;57.83;2.37;;;;;;;;;;5094104;28;20580;-73
2022/04/07 07:40:50;;;;;;;58.20;2.40;;;;;;;;;;5095347;28;20808;-74
2022/04/07 07:43:17;;;;;;;58.20;2.60;;;;;;;;;;5095104;28;20449;-73
2022/04/07 07:45:45;;;;;;;57.80;2.33;;;;;;;;;;5094182;28;20822;-72
2022/04/07 07:48:13;;;;;;;58.50;2.57;;;;;;;;;;5090902;28;20470;-74
2022/04/07 07:50:41;;;;;;;58.13;2.60;;;;;;;;;;5095098;28;20446;-74
2022/04/07 07:53:09;;;;;;;58.00;2.70;;;;;;;;;;5094822;28;20478;-74
2022/04/07 07:55:38;;;;;;;58.50;2.70;;;;;;;;;;5095078;28;20446;-73
2022/04/07 07:58:05;;;;;;;58.10;2.37;;;;;;;;;;5094095;28;20466;-73
2022/04/07 08:00:32;;;;;;;58.90;2.67;;;;;;;;;;5094610;28;21002;-73
2022/04/07 08:03:00;;;;;;;59.10;2.93;;;;;;;;;;5094699;28;20534;-71
2022/04/07 08:05:28;;;;;;;59.00;2.40;;;;;;;;;;5094802;28;20533;-72
2022/04/07 08:07:55;;;;;;;57.97;2.70;;;;;;;;;;5093736;28;20554;-72
2022/04/07 08:10:22;;;;;;;58.00;2.60;;;;;;;;;;5094750;28;20448;-72
2022/04/07 08:12:49;;;;;;;57.90;2.60;;;;;;;;;;5094469;28;20533;-73
2022/04/07 08:15:16;;;;;;;61.90;2.90;;;;;;;;;;5094439;28;20443;-72
2022/04/07 08:17:43;;;;;;;58.60;2.50;;;;;;;;;;5089448;28;21066;-72
2022/04/07 08:20:13;;;;;;;58.17;2.43;;;;;;;;;;5094559;28;20478;-73
2022/04/07 08:22:40;;;;;;;58.77;2.47;;;;;;;;;;5094266;28;20478;-71
2022/04/07 08:25:08;;;;;;;58.63;2.87;;;;;;;;;;5094586;28;20529;-72
2022/04/07 08:27:35;;;;;;;58.37;2.60;;;;;;;;;;5093592;28;20519;-72
2022/04/07 08:30:03;;;;;;;58.13;2.60;;;;;;;;;;5094598;28;20530;-72
2022/04/07 08:32:31;;;;;;;58.30;2.63;;;;;;;;;;5094026;28;20449;-73
2022/04/07 08:34:59;;;;;;;58.60;2.60;;;;;;;;;;5093873;28;20547;-73
2022/04/07 08:37:27;;;;;;;58.47;2.33;;;;;;;;;;5093463;28;20483;-73
2022/04/07 08:39:55;;;;;;;58.30;2.50;;;;;;;;;;5093930;28;20450;-73
2022/04/07 08:42:23;;;;;;;58.80;2.80;;;;;;;;;;5093944;28;20846;-73
2022/04/07 08:44:50;;;;;;;58.20;2.80;;;;;;;;;;5093792;28;20541;-73
2022/04/07 08:47:18;;;;;;;59.17;2.37;;;;;;;;;;5092271;28;20462;-72
2022/04/07 08:49:46;;;;;;;58.90;2.60;;;;;;;;;;5089264;28;20473;-73
2022/04/07 08:52:13;;;;;;;60.00;3.37;;;;;;;;;;5093833;28;20451;-73
2022/04/07 08:54:42;;;;;;;58.30;2.70;;;;;;;;;;5093652;28;20568;-73
2022/04/07 08:57:10;;;;;;;57.97;2.40;;;;;;;;;;5093155;28;20450;-68
2022/04/07 08:59:37;;;;;;;57.97;2.30;;;;;;;;;;5093515;28;20542;-72
2022/04/07 09:02:04;;;;;;;58.80;2.37;;;;;;;;;;5093695;28;20958;-73
2022/04/07 09:04:32;;;;;;;60.00;2.50;;;;;;;;;;5093459;28;20529;-73
2022/04/07 09:06:59;;;;;;;57.67;2.07;;;;;;;;;;5093561;28;20446;-71
2022/04/07 09:09:27;;;;;;;58.13;2.70;;;;;;;;;;5092757;28;20951;-73
2022/04/07 09:11:59;;;;;;;58.97;2.60;;;;;;;;;;5093139;28;20438;-73
2022/04/07 09:14:26;;;;;;;58.40;2.30;;;;;;;;;;5093163;28;20485;-72
2022/04/07 09:16:55;;;;;;;61.77;2.27;;;;;;;;;;5093629;28;20442;-72
2022/04/07 09:19:22;;;;;;;57.90;2.73;;;;;;;;;;5093117;28;20450;-72
2022/04/07 09:21:52;;;;;;;58.07;2.37;;;;;;;;;;5071935;28;20455;-72
2022/04/07 09:24:27;;;;;;;58.70;3.03;;;;;;;;;;5073407;28;20567;-71
2022/04/07 09:26:54;;;;;;;58.17;2.40;;;;;;;;;;5073288;28;20815;-72
2022/04/07 09:29:22;;;;;;;58.07;2.60;;;;;;;;;;5072406;28;21007;-73
2022/04/07 09:31:53;;;;;;;59.30;2.57;;;;;;;;;;5074550;28;20552;-71
2022/04/07 09:34:30;;;;;;;57.93;2.40;;;;;;;;;;5073511;28;20483;-71
2022/04/07 09:37:04;;;;;;;57.90;2.50;;;;;;;;;;5073876;28;20441;-71
2022/04/07 09:39:33;;;;;;;58.17;2.60;;;;;;;;;;5072610;28;20532;-72
2022/04/07 09:42:18;;;;;;;57.93;2.30;;;;;;;;;;5073057;28;20915;-72
2022/04/07 09:44:46;;;;;;;59.70;2.53;;;;;;;;;;5072561;28;20451;-73
2022/04/07 09:47:13;;;;;;;58.40;2.60;;;;;;;;;;5071857;28;20467;-72
2022/04/07 09:49:42;;;;;;;58.47;2.40;;;;;;;;;;5072432;28;20828;-72
2022/04/07 09:52:09;;;;;;;58.30;2.37;;;;;;;;;;5080977;28;20454;-73
2022/04/07 09:54:37;;;;;;;58.90;2.40;;;;;;;;;;5092787;28;20482;-72
2022/04/07 09:57:05;;;;;;;58.07;2.40;;;;;;;;;;5092246;28;20450;-70
2022/04/07 09:59:33;;;;;;;57.93;2.40;;;;;;;;;;5093287;28;20449;-72
2022/04/07 10:02:01;;;;;;;58.07;2.40;;;;;;;;;;5092252;28;20763;-73
2022/04/07 10:04:29;;;;;;;59.37;2.30;;;;;;;;;;5092172;28;21030;-70
2022/04/07 10:06:56;;;;;;;57.97;2.20;;;;;;;;;;5092385;28;20452;-73
2022/04/07 10:09:24;;;;;;;57.80;2.10;;;;;;;;;;5091423;28;20529;-72
2022/04/07 10:11:52;;;;;;;57.87;2.37;;;;;;;;;;5093698;28;20939;-71
2022/04/07 10:14:21;;;;;;;60.80;2.60;;;;;;;;;;5091926;28;20485;-71
2022/04/07 10:16:48;;;;;;;67.10;2.60;;;;;;;;;;5092211;28;20449;-72
2022/04/07 10:19:20;;;;;;;58.43;2.70;;;;;;;;;;5091613;28;20446;-73
2022/04/07 10:21:53;;;;;;;58.40;2.50;;;;;;;;;;5092446;28;20452;-70
2022/04/07 10:24:27;;;;;;;58.37;2.63;;;;;;;;;;5074124;28;20538;-73
2022/04/07 10:26:55;;;;;;;58.10;2.50;;;;;;;;;;5072031;28;20449;-72
2022/04/07 10:29:22;;;;;;;57.77;2.40;;;;;;;;;;5071840;28;20456;-72
2022/04/07 10:32:09;;;;;;;57.90;2.43;;;;;;;;;;5071953;28;20441;-72
2022/04/07 10:34:42;;;;;;;58.00;2.53;;;;;;;;;;5071720;28;20475;-75
2022/04/07 10:37:09;;;;;;;58.70;2.77;;;;;;;;;;5072702;28;20454;-73
2022/04/07 10:39:41;;;;;;;58.77;2.47;;;;;;;;;;5071791;28;20451;-74
2022/04/07 10:42:09;;;;;;;58.40;2.50;;;;;;;;;;5072008;28;20928;-73
2022/04/07 10:44:38;;;;;;;58.20;2.40;;;;;;;;;;5071818;28;20550;-73
2022/04/07 10:47:06;;;;;;;58.10;2.30;;;;;;;;;;5071506;28;20451;-70
2022/04/07 10:49:33;;;;;;;57.47;2.30;;;;;;;;;;5071367;28;20467;-73
2022/04/07 10:52:04;;;;;;;57.80;2.40;;;;;;;;;;5071871;28;20451;-73
2022/04/07 10:54:31;;;;;;;58.30;2.43;;;;;;;;;;5068639;28;20850;-73
2022/04/07 10:57:00;;;;;;;57.83;2.40;;;;;;;;;;5071826;28;20439;-73
2022/04/07 10:59:28;;;;;;;58.50;2.30;;;;;;;;;;5071263;28;20741;-74
2022/04/07 11:02:03;;;;;;;58.00;2.30;;;;;;;;;;5072022;28;20444;-74
2022/04/07 11:04:40;;;;;;;61.23;2.20;;;;;;;;;;5071534;28;20443;-73
2022/04/07 11:07:16;;;;;;;58.27;2.20;;;;;;;;;;5071200;28;20446;-68
2022/04/07 11:09:44;;;;;;;57.90;2.20;;;;;;;;;;5072978;28;20487;-74
2022/04/07 11:12:12;;;;;;;59.43;2.50;;;;;;;;;;5076064;28;20455;-74
2022/04/07 11:14:39;;;;;;;58.97;2.63;;;;;;;;;;5075440;28;20924;-73
2022/04/07 11:17:07;;;;;;;58.27;2.30;;;;;;;;;;5074805;28;20452;-73
2022/04/07 11:19:40;;;;;;;58.17;2.30;;;;;;;;;;5075528;28;20501;-73
2022/04/07 11:22:12;;;;;;;58.70;2.43;;;;;;;;;;5074936;28;20455;-72
2022/04/07 11:24:45;;;;;;;57.87;2.27;;;;;;;;;;5075126;28;20954;-71
2022/04/07 11:27:33;;;;;;;58.73;2.47;;;;;;;;;;5081616;28;20505;-70
2022/04/07 11:30:05;;;;;;;58.27;2.40;;;;;;;;;;5090289;28;20481;-73
2022/04/07 11:32:32;;;;;;;58.10;2.20;;;;;;;;;;5095033;28;20534;-73
2022/04/07 11:35:12;;;;;;;59.47;2.40;;;;;;;;;;5094402;28;20475;-73
2022/04/07 11:37:40;;;;;;;61.10;2.50;;;;;;;;;;5073561;28;20476;-73
2022/04/07 11:40:09;;;;;;;57.87;2.50;;;;;;;;;;5074210;28;20444;-73
2022/04/07 11:42:37;;;;;;;59.10;2.60;;;;;;;;;;5074467;28;20446;-73
2022/04/07 11:45:04;;;;;;;57.80;2.40;;;;;;;;;;5075116;28;20530;-74
2022/04/07 11:47:33;;;;;;;57.77;2.30;;;;;;;;;;5073308;28;20557;-72
2022/04/07 11:50:00;;;;;;;61.40;2.60;;;;;;;;;;5073803;28;20453;-73
2022/04/07 11:52:28;;;;;;;57.87;2.43;;;;;;;;;;5073801;28;20527;-72
2022/04/07 11:54:56;;;;;;;58.37;2.30;;;;;;;;;;5074489;28;20572;-72
2022/04/07 11:57:29;;;;;;;57.97;2.23;;;;;;;;;;5073914;28;20836;-72
2022/04/07 11:59:56;;;;;;;58.87;2.37;;;;;;;;;;5089368;28;20454;-74
2022/04/07 12:02:24;;;;;;;58.20;2.40;;;;;;;;;;5094719;28;20447;-73
2022/04/07 12:04:58;;;;;;;59.37;2.50;;;;;;;;;;5094928;28;20450;-73
2022/04/07 12:07:25;;;;;;;74.37;2.50;;;;;;;;;;5094311;28;20851;-74
2022/04/07 12:09:52;;;;;;;59.37;2.30;;;;;;;;;;5096224;28;20987;-72
2022/04/07 12:12:20;;;;;;;59.77;2.30;;;;;;;;;;5095042;28;20451;-73
2022/04/07 12:14:48;;;;;;;57.93;2.50;;;;;;;;;;5097221;28;21031;-73
2022/04/07 12:17:15;;;;;;;58.07;2.40;;;;;;;;;;5097827;28;20555;-73
2022/04/07 12:19:46;;;;;;;57.97;2.23;;;;;;;;;;5097127;28;20835;-74
2022/04/07 12:22:13;;;;;;;57.83;2.10;;;;;;;;;;5095031;28;20528;-74
2022/04/07 12:24:41;;;;;;;58.20;2.60;;;;;;;;;;5095380;28;20940;-72
2022/04/07 12:27:09;;;;;;;59.43;2.33;;;;;;;;;;5094213;28;20451;-73
2022/04/07 12:29:36;;;;;;;57.60;2.20;;;;;;;;;;5091132;28;20450;-72
2022/04/07 12:32:06;;;;;;;62.87;2.47;;;;;;;;;;5094117;28;20894;-73
2022/04/07 12:34:34;;;;;;;59.70;2.40;;;;;;;;;;5094275;28;20524;-74
2022/04/07 12:37:01;;;;;;;59.70;2.33;;;;;;;;;;5095202;28;20892;-72
2022/04/07 12:39:31;;;;;;;58.20;2.27;;;;;;;;;;5093447;28;20451;-73
2022/04/07 12:42:04;;;;;;;57.77;2.20;;;;;;;;;;5094562;28;20943;-75
2022/04/07 12:44:35;;;;;;;58.70;2.50;;;;;;;;;;5094116;28;20493;-72
2022/04/07 12:47:11;;;;;;;57.97;2.23;;;;;;;;;;5093697;28;20478;-73
2022/04/07 12:49:40;;;;;;;58.83;2.33;;;;;;;;;;5093990;28;20519;-74
2022/04/07 12:52:11;;;;;;;58.20;2.30;;;;;;;;;;5095924;28;20451;-72
2022/04/07 12:54:38;;;;;;;58.07;2.50;;;;;;;;;;5094019;28;20457;-73
2022/04/07 12:57:10;;;;;;;58.40;2.40;;;;;;;;;;5093155;28;20525;-72
2022/04/07 12:59:37;;;;;;;57.77;2.10;;;;;;;;;;5093533;28;20445;-73
2022/04/07 13:02:05;;;;;;;58.77;2.13;;;;;;;;;;5079572;28;20452;-73
2022/04/07 13:04:50;;;;;;;58.70;2.27;;;;;;;;;;5073075;28;20944;-74
2022/04/07 13:07:17;;;;;;;57.97;2.23;;;;;;;;;;5072722;28;20467;-73
2022/04/07 13:09:44;;;;;;;57.97;2.37;;;;;;;;;;5073643;28;20530;-76
2022/04/07 13:12:13;;;;;;;57.90;2.17;;;;;;;;;;5073099;28;20474;-71
2022/04/07 13:14:40;;;;;;;58.27;2.47;;;;;;;;;;5072983;28;20459;-73
2022/04/07 13:17:09;;;;;;;57.77;2.20;;;;;;;;;;5073065;28;20547;-70
2022/04/07 13:19:36;;;;;;;58.03;2.30;;;;;;;;;;5073976;28;20449;-74
2022/04/07 13:22:05;;;;;;;57.97;2.33;;;;;;;;;;5073842;28;20448;-74
2022/04/07 13:24:32;;;;;;;57.80;2.33;;;;;;;;;;5073977;28;20480;-73
2022/04/07 13:26:59;;;;;;;57.97;2.20;;;;;;;;;;5073650;28;20535;-73
2022/04/07 13:29:27;;;;;;;57.97;2.20;;;;;;;;;;5073594;28;20490;-74
2022/04/07 13:31:54;;;;;;;61.43;2.37;;;;;;;;;;5073083;28;20933;-73
2022/04/07 13:34:22;;;;;;;57.73;2.13;;;;;;;;;;5088717;28;20826;-73
2022/04/07 13:36:49;;;;;;;58.53;2.47;;;;;;;;;;5093624;28;20498;-74
2022/04/07 13:39:17;;;;;;;58.73;2.50;;;;;;;;;;5093098;28;20511;-74
2022/04/07 13:41:45;;;;;;;58.37;2.63;;;;;;;;;;5093330;28;20443;-74
2022/04/07 13:44:12;;;;;;;57.77;2.40;;;;;;;;;;5092720;28;20505;-71
2022/04/07 13:46:39;;;;;;;58.47;2.40;;;;;;;;;;5092942;28;20444;-74
2022/04/07 13:49:06;;;;;;;58.17;2.30;;;;;;;;;;5091966;28;20489;-72
2022/04/07 13:51:34;;;;;;;59.80;2.73;;;;;;;;;;5093153;28;20446;-74
2022/04/07 13:54:01;;;;;;;58.50;2.50;;;;;;;;;;5092822;28;20454;-73
2022/04/07 13:56:29;;;;;;;58.00;2.40;;;;;;;;;;5092849;28;20561;-73
2022/04/07 13:58:56;;;;;;;58.23;2.40;;;;;;;;;;5092431;28;20466;-74
2022/04/07 14:01:23;;;;;;;58.00;2.57;;;;;;;;;;5093263;28;20937;-73
2022/04/07 14:03:53;;;;;;;58.70;2.50;;;;;;;;;;5088384;28;20938;-74
2022/04/07 14:06:20;;;;;;;58.00;2.30;;;;;;;;;;5093553;28;20446;-74
2022/04/07 14:08:48;;;;;;;58.20;2.60;;;;;;;;;;5092738;28;20582;-74
2022/04/07 14:11:16;;;;;;;58.00;2.30;;;;;;;;;;5092699;28;20447;-71
2022/04/07 14:13:45;;;;;;;57.97;2.30;;;;;;;;;;5092630;28;20454;-69
2022/04/07 14:16:12;;;;;;;62.60;2.80;;;;;;;;;;5092178;28;20562;-72
2022/04/07 14:18:39;;;;;;;58.20;2.40;;;;;;;;;;5091382;28;20554;-72
2022/04/07 14:21:07;;;;;;;58.57;2.47;;;;;;;;;;5092628;28;20486;-73
2022/04/07 14:23:34;;;;;;;57.93;2.37;;;;;;;;;;5092665;28;20555;-72
2022/04/07 14:26:01;;;;;;;58.10;2.30;;;;;;;;;;5093718;28;20968;-72
2022/04/07 14:28:28;;;;;;;57.80;2.40;;;;;;;;;;5092620;28;20553;-71
2022/04/07 14:30:57;;;;;;;58.27;2.30;;;;;;;;;;5092418;28;20444;-73
2022/04/07 14:33:24;;;;;;;59.00;2.53;;;;;;;;;;5092618;28;20534;-71
2022/04/07 14:35:51;;;;;;;58.43;2.70;;;;;;;;;;5078135;28;20562;-73